sensor_id;sensor_type;location;lat;lon;timestamp;P1;durP1;ratioP1;P2;durP2;ratioP2
56114;SDS011;41988;53.020;6.576;2023-01-16T00:00:16;7.40;;;3.50;;
56114;SDS011;41988;53.020;6.576;2023-01-16T00:03:01;8.97;;;3.30;;
56114;SDS011;41988;53.020;6.576;2023-01-16T00:05:45;5.53;;;3.03;;
56114;SDS011;41988;53.020;6.576;2023-01-16T00:08:30;7.57;;;2.97;;
56114;SDS011;41988;53.020;6.576;2023-01-16T00:11:15;7.10;;;3.40;;
56114;SDS011;41988;53.020;6.576;2023-01-16T00:14:00;7.80;;;3.77;;
56114;SDS011;41988;53.020;6.576;2023-01-16T00:16:44;9.30;;;2.90;;
56114;SDS011;41988;53.020;6.576;2023-01-16T00:19:29;5.80;;;2.87;;
56114;SDS011;41988;53.020;6.576;2023-01-16T00:22:13;6.00;;;2.67;;
56114;SDS011;41988;53.020;6.576;2023-01-16T00:24:58;6.57;;;2.90;;
56114;SDS011;41988;53.020;6.576;2023-01-16T00:27:42;5.83;;;2.60;;
56114;SDS011;41988;53.020;6.576;2023-01-16T00:30:27;6.17;;;2.83;;
56114;SDS011;41988;53.020;6.576;2023-01-16T00:33:11;8.00;;;3.00;;
56114;SDS011;41988;53.020;6.576;2023-01-16T00:35:56;5.03;;;2.97;;
56114;SDS011;41988;53.020;6.576;2023-01-16T00:38:41;6.13;;;2.60;;
56114;SDS011;41988;53.020;6.576;2023-01-16T00:41:25;8.47;;;2.90;;
56114;SDS011;41988;53.020;6.576;2023-01-16T00:44:10;3.97;;;2.33;;
56114;SDS011;41988;53.020;6.576;2023-01-16T00:46:54;8.97;;;2.60;;
56114;SDS011;41988;53.020;6.576;2023-01-16T00:49:39;7.13;;;2.70;;
56114;SDS011;41988;53.020;6.576;2023-01-16T00:52:24;10.57;;;2.63;;
56114;SDS011;41988;53.020;6.576;2023-01-16T00:55:08;10.13;;;2.77;;
56114;SDS011;41988;53.020;6.576;2023-01-16T00:57:53;6.97;;;2.67;;
56114;SDS011;41988;53.020;6.576;2023-01-16T01:00:37;5.10;;;2.53;;
56114;SDS011;41988;53.020;6.576;2023-01-16T01:03:22;8.70;;;2.87;;
56114;SDS011;41988;53.020;6.576;2023-01-16T01:06:07;11.20;;;2.80;;
56114;SDS011;41988;53.020;6.576;2023-01-16T01:08:52;10.17;;;3.43;;
56114;SDS011;41988;53.020;6.576;2023-01-16T01:11:36;10.43;;;3.13;;
56114;SDS011;41988;53.020;6.576;2023-01-16T01:14:21;4.63;;;2.47;;
56114;SDS011;41988;53.020;6.576;2023-01-16T01:17:05;7.67;;;3.17;;
56114;SDS011;41988;53.020;6.576;2023-01-16T01:19:50;5.80;;;3.40;;
56114;SDS011;41988;53.020;6.576;2023-01-16T01:22:34;7.90;;;2.60;;
56114;SDS011;41988;53.020;6.576;2023-01-16T01:25:19;4.90;;;2.80;;
56114;SDS011;41988;53.020;6.576;2023-01-16T01:28:03;8.83;;;2.87;;
56114;SDS011;41988;53.020;6.576;2023-01-16T01:30:48;7.20;;;3.27;;
56114;SDS011;41988;53.020;6.576;2023-01-16T01:33:33;8.10;;;2.83;;
56114;SDS011;41988;53.020;6.576;2023-01-16T01:36:17;9.80;;;3.10;;
56114;SDS011;41988;53.020;6.576;2023-01-16T01:39:02;5.67;;;2.47;;
56114;SDS011;41988;53.020;6.576;2023-01-16T01:41:46;9.17;;;2.90;;
56114;SDS011;41988;53.020;6.576;2023-01-16T01:47:51;11.93;;;2.67;;
56114;SDS011;41988;53.020;6.576;2023-01-16T01:53:33;8.37;;;2.67;;
56114;SDS011;41988;53.020;6.576;2023-01-16T01:59:11;8.13;;;3.07;;
56114;SDS011;41988;53.020;6.576;2023-01-16T02:02:09;6.60;;;2.90;;
56114;SDS011;41988;53.020;6.576;2023-01-16T02:04:59;16.80;;;2.87;;
56114;SDS011;41988;53.020;6.576;2023-01-16T02:07:47;7.57;;;3.10;;
56114;SDS011;41988;53.020;6.576;2023-01-16T02:13:20;8.00;;;2.33;;
56114;SDS011;41988;53.020;6.576;2023-01-16T02:16:05;9.87;;;3.30;;
56114;SDS011;41988;53.020;6.576;2023-01-16T02:19:09;6.90;;;3.05;;
56114;SDS011;41988;53.020;6.576;2023-01-16T02:29:28;9.30;;;2.80;;
56114;SDS011;41988;53.020;6.576;2023-01-16T02:33:17;6.93;;;2.23;;
56114;SDS011;41988;53.020;6.576;2023-01-16T02:38:55;7.73;;;2.40;;
56114;SDS011;41988;53.020;6.576;2023-01-16T02:50:47;5.07;;;2.57;;
56114;SDS011;41988;53.020;6.576;2023-01-16T02:56:25;8.50;;;3.20;;
56114;SDS011;41988;53.020;6.576;2023-01-16T02:59:15;6.80;;;2.57;;
56114;SDS011;41988;53.020;6.576;2023-01-16T03:02:01;9.10;;;2.60;;
56114;SDS011;41988;53.020;6.576;2023-01-16T03:04:47;8.03;;;2.33;;
56114;SDS011;41988;53.020;6.576;2023-01-16T03:27:42;10.57;;;3.03;;
56114;SDS011;41988;53.020;6.576;2023-01-16T03:31:00;10.75;;;3.03;;
56114;SDS011;41988;53.020;6.576;2023-01-16T03:34:02;5.68;;;2.72;;
56114;SDS011;41988;53.020;6.576;2023-01-16T03:36:58;9.47;;;3.07;;
56114;SDS011;41988;53.020;6.576;2023-01-16T03:39:49;11.33;;;2.77;;
56114;SDS011;41988;53.020;6.576;2023-01-16T03:45:30;9.23;;;3.20;;
56114;SDS011;41988;53.020;6.576;2023-01-16T03:51:43;8.07;;;3.33;;
56114;SDS011;41988;53.020;6.576;2023-01-16T03:57:21;12.37;;;4.07;;
56114;SDS011;41988;53.020;6.576;2023-01-16T04:00:10;7.85;;;4.05;;
56114;SDS011;41988;53.020;6.576;2023-01-16T04:03:05;12.07;;;3.90;;
56114;SDS011;41988;53.020;6.576;2023-01-16T04:08:43;18.40;;;7.30;;
56114;SDS011;41988;53.020;6.576;2023-01-16T04:11:28;9.27;;;4.40;;
56114;SDS011;41988;53.020;6.576;2023-01-16T04:14:17;10.93;;;5.70;;
56114;SDS011;41988;53.020;6.576;2023-01-16T04:17:04;8.43;;;4.50;;
56114;SDS011;41988;53.020;6.576;2023-01-16T04:19:49;12.70;;;4.67;;
56114;SDS011;41988;53.020;6.576;2023-01-16T04:22:34;12.20;;;4.57;;
56114;SDS011;41988;53.020;6.576;2023-01-16T04:25:19;8.87;;;5.00;;
56114;SDS011;41988;53.020;6.576;2023-01-16T04:28:04;8.27;;;4.43;;
56114;SDS011;41988;53.020;6.576;2023-01-16T04:30:49;16.37;;;5.70;;
56114;SDS011;41988;53.020;6.576;2023-01-16T04:33:33;11.50;;;5.97;;
56114;SDS011;41988;53.020;6.576;2023-01-16T04:36:18;10.03;;;4.93;;
56114;SDS011;41988;53.020;6.576;2023-01-16T04:39:02;10.30;;;5.60;;
56114;SDS011;41988;53.020;6.576;2023-01-16T04:41:47;18.13;;;7.33;;
56114;SDS011;41988;53.020;6.576;2023-01-16T04:44:34;12.70;;;6.00;;
56114;SDS011;41988;53.020;6.576;2023-01-16T04:47:18;11.30;;;6.30;;
56114;SDS011;41988;53.020;6.576;2023-01-16T04:50:03;14.30;;;6.37;;
56114;SDS011;41988;53.020;6.576;2023-01-16T04:52:48;9.70;;;6.10;;
56114;SDS011;41988;53.020;6.576;2023-01-16T04:55:33;10.63;;;6.37;;
56114;SDS011;41988;53.020;6.576;2023-01-16T04:58:17;15.53;;;6.83;;
56114;SDS011;41988;53.020;6.576;2023-01-16T05:01:02;15.90;;;7.77;;
56114;SDS011;41988;53.020;6.576;2023-01-16T05:03:49;15.33;;;7.93;;
56114;SDS011;41988;53.020;6.576;2023-01-16T05:06:34;17.13;;;8.67;;
56114;SDS011;41988;53.020;6.576;2023-01-16T05:09:19;17.10;;;8.23;;
56114;SDS011;41988;53.020;6.576;2023-01-16T05:12:03;20.40;;;9.30;;
56114;SDS011;41988;53.020;6.576;2023-01-16T05:14:48;15.03;;;9.07;;
56114;SDS011;41988;53.020;6.576;2023-01-16T05:17:32;15.90;;;9.00;;
56114;SDS011;41988;53.020;6.576;2023-01-16T05:20:17;16.73;;;9.50;;
56114;SDS011;41988;53.020;6.576;2023-01-16T05:23:04;16.03;;;8.47;;
56114;SDS011;41988;53.020;6.576;2023-01-16T05:25:49;18.40;;;9.23;;
56114;SDS011;41988;53.020;6.576;2023-01-16T05:28:35;20.67;;;10.80;;
56114;SDS011;41988;53.020;6.576;2023-01-16T05:31:20;17.33;;;8.97;;
56114;SDS011;41988;53.020;6.576;2023-01-16T05:34:04;19.47;;;10.03;;
56114;SDS011;41988;53.020;6.576;2023-01-16T05:36:49;20.23;;;10.43;;
56114;SDS011;41988;53.020;6.576;2023-01-16T05:39:33;15.70;;;9.93;;
56114;SDS011;41988;53.020;6.576;2023-01-16T05:42:18;22.07;;;10.33;;
56114;SDS011;41988;53.020;6.576;2023-01-16T05:45:08;18.40;;;9.37;;
56114;SDS011;41988;53.020;6.576;2023-01-16T05:47:53;20.63;;;10.87;;
56114;SDS011;41988;53.020;6.576;2023-01-16T05:50:37;20.80;;;11.00;;
56114;SDS011;41988;53.020;6.576;2023-01-16T05:53:22;19.80;;;11.50;;
56114;SDS011;41988;53.020;6.576;2023-01-16T05:56:07;19.53;;;11.80;;
56114;SDS011;41988;53.020;6.576;2023-01-16T05:58:52;21.10;;;11.10;;
56114;SDS011;41988;53.020;6.576;2023-01-16T06:01:37;25.50;;;11.60;;
56114;SDS011;41988;53.020;6.576;2023-01-16T06:04:22;24.27;;;12.00;;
56114;SDS011;41988;53.020;6.576;2023-01-16T06:07:07;21.30;;;11.87;;
56114;SDS011;41988;53.020;6.576;2023-01-16T06:09:51;26.00;;;11.40;;
56114;SDS011;41988;53.020;6.576;2023-01-16T06:12:36;29.10;;;12.03;;
56114;SDS011;41988;53.020;6.576;2023-01-16T06:15:20;20.73;;;10.80;;
56114;SDS011;41988;53.020;6.576;2023-01-16T06:18:05;28.77;;;11.60;;
56114;SDS011;41988;53.020;6.576;2023-01-16T06:20:49;19.63;;;10.63;;
56114;SDS011;41988;53.020;6.576;2023-01-16T06:23:35;23.97;;;10.57;;
56114;SDS011;41988;53.020;6.576;2023-01-16T06:26:19;18.87;;;10.00;;
56114;SDS011;41988;53.020;6.576;2023-01-16T06:29:04;21.17;;;9.23;;
56114;SDS011;41988;53.020;6.576;2023-01-16T06:31:48;16.60;;;8.50;;
56114;SDS011;41988;53.020;6.576;2023-01-16T06:34:33;17.20;;;9.07;;
56114;SDS011;41988;53.020;6.576;2023-01-16T06:37:17;21.40;;;9.17;;
56114;SDS011;41988;53.020;6.576;2023-01-16T06:40:02;15.87;;;7.93;;
56114;SDS011;41988;53.020;6.576;2023-01-16T06:42:47;21.03;;;9.43;;
56114;SDS011;41988;53.020;6.576;2023-01-16T06:45:31;18.97;;;8.00;;
56114;SDS011;41988;53.020;6.576;2023-01-16T06:48:15;19.23;;;8.17;;
56114;SDS011;41988;53.020;6.576;2023-01-16T06:51:00;13.63;;;8.13;;
56114;SDS011;41988;53.020;6.576;2023-01-16T06:53:45;22.77;;;8.67;;
56114;SDS011;41988;53.020;6.576;2023-01-16T06:56:30;15.10;;;8.13;;
56114;SDS011;41988;53.020;6.576;2023-01-16T06:59:14;18.60;;;7.43;;
56114;SDS011;41988;53.020;6.576;2023-01-16T07:01:59;15.43;;;7.93;;
56114;SDS011;41988;53.020;6.576;2023-01-16T07:04:43;16.70;;;7.57;;
56114;SDS011;41988;53.020;6.576;2023-01-16T07:07:28;14.93;;;6.53;;
56114;SDS011;41988;53.020;6.576;2023-01-16T07:10:13;13.73;;;6.43;;
56114;SDS011;41988;53.020;6.576;2023-01-16T07:12:57;12.23;;;5.70;;
56114;SDS011;41988;53.020;6.576;2023-01-16T07:15:46;14.67;;;6.80;;
56114;SDS011;41988;53.020;6.576;2023-01-16T07:18:49;14.23;;;6.60;;
56114;SDS011;41988;53.020;6.576;2023-01-16T07:21:34;14.87;;;6.80;;
56114;SDS011;41988;53.020;6.576;2023-01-16T07:24:37;16.27;;;6.43;;
56114;SDS011;41988;53.020;6.576;2023-01-16T07:27:23;15.03;;;6.27;;
56114;SDS011;41988;53.020;6.576;2023-01-16T07:30:08;15.73;;;7.30;;
56114;SDS011;41988;53.020;6.576;2023-01-16T07:32:53;20.30;;;6.77;;
56114;SDS011;41988;53.020;6.576;2023-01-16T07:35:38;15.93;;;6.73;;
56114;SDS011;41988;53.020;6.576;2023-01-16T07:38:23;15.53;;;6.87;;
56114;SDS011;41988;53.020;6.576;2023-01-16T07:41:07;20.23;;;6.90;;
56114;SDS011;41988;53.020;6.576;2023-01-16T07:43:52;12.67;;;6.00;;
56114;SDS011;41988;53.020;6.576;2023-01-16T07:46:37;14.53;;;6.60;;
56114;SDS011;41988;53.020;6.576;2023-01-16T07:49:21;15.47;;;6.07;;
56114;SDS011;41988;53.020;6.576;2023-01-16T07:52:06;14.73;;;7.23;;
56114;SDS011;41988;53.020;6.576;2023-01-16T07:54:50;20.87;;;6.67;;
56114;SDS011;41988;53.020;6.576;2023-01-16T07:57:35;15.13;;;6.90;;
56114;SDS011;41988;53.020;6.576;2023-01-16T08:00:20;14.37;;;6.47;;
56114;SDS011;41988;53.020;6.576;2023-01-16T08:03:05;13.00;;;6.13;;
56114;SDS011;41988;53.020;6.576;2023-01-16T08:05:53;17.27;;;6.43;;
56114;SDS011;41988;53.020;6.576;2023-01-16T08:08:39;16.50;;;7.57;;
56114;SDS011;41988;53.020;6.576;2023-01-16T08:11:24;13.17;;;6.63;;
56114;SDS011;41988;53.020;6.576;2023-01-16T08:14:21;11.30;;;5.43;;
56114;SDS011;41988;53.020;6.576;2023-01-16T08:17:07;12.23;;;6.43;;
56114;SDS011;41988;53.020;6.576;2023-01-16T08:19:51;10.63;;;5.83;;
56114;SDS011;41988;53.020;6.576;2023-01-16T08:22:46;13.20;;;6.33;;
56114;SDS011;41988;53.020;6.576;2023-01-16T08:25:33;13.73;;;5.50;;
56114;SDS011;41988;53.020;6.576;2023-01-16T08:28:18;12.17;;;5.70;;
56114;SDS011;41988;53.020;6.576;2023-01-16T08:31:06;14.93;;;6.20;;
56114;SDS011;41988;53.020;6.576;2023-01-16T08:33:54;14.47;;;6.27;;
56114;SDS011;41988;53.020;6.576;2023-01-16T08:36:39;10.90;;;6.17;;
56114;SDS011;41988;53.020;6.576;2023-01-16T08:39:23;14.00;;;6.33;;
56114;SDS011;41988;53.020;6.576;2023-01-16T08:42:10;12.50;;;6.37;;
56114;SDS011;41988;53.020;6.576;2023-01-16T08:45:13;11.60;;;5.27;;
56114;SDS011;41988;53.020;6.576;2023-01-16T08:48:20;11.98;;;5.85;;
56114;SDS011;41988;53.020;6.576;2023-01-16T08:51:26;10.27;;;5.30;;
56114;SDS011;41988;53.020;6.576;2023-01-16T08:54:11;13.37;;;5.70;;
56114;SDS011;41988;53.020;6.576;2023-01-16T08:56:55;14.27;;;5.23;;
56114;SDS011;41988;53.020;6.576;2023-01-16T08:59:39;14.70;;;5.20;;
56114;SDS011;41988;53.020;6.576;2023-01-16T09:02:24;11.13;;;5.10;;
56114;SDS011;41988;53.020;6.576;2023-01-16T09:05:10;9.93;;;5.20;;
56114;SDS011;41988;53.020;6.576;2023-01-16T09:07:56;11.00;;;5.00;;
56114;SDS011;41988;53.020;6.576;2023-01-16T09:10:40;7.90;;;5.80;;
56114;SDS011;41988;53.020;6.576;2023-01-16T09:13:45;13.23;;;4.90;;
56114;SDS011;41988;53.020;6.576;2023-01-16T09:16:33;13.13;;;4.37;;
56114;SDS011;41988;53.020;6.576;2023-01-16T09:19:18;14.63;;;4.93;;
56114;SDS011;41988;53.020;6.576;2023-01-16T09:22:03;9.43;;;4.20;;
56114;SDS011;41988;53.020;6.576;2023-01-16T09:24:51;8.03;;;4.37;;
56114;SDS011;41988;53.020;6.576;2023-01-16T09:27:36;8.60;;;3.60;;
56114;SDS011;41988;53.020;6.576;2023-01-16T09:30:21;9.17;;;4.20;;
56114;SDS011;41988;53.020;6.576;2023-01-16T09:33:05;8.17;;;4.13;;
56114;SDS011;41988;53.020;6.576;2023-01-16T09:35:50;7.33;;;3.30;;
56114;SDS011;41988;53.020;6.576;2023-01-16T09:38:34;9.50;;;3.90;;
56114;SDS011;41988;53.020;6.576;2023-01-16T09:41:18;12.80;;;3.70;;
56114;SDS011;41988;53.020;6.576;2023-01-16T09:44:22;8.50;;;3.53;;
56114;SDS011;41988;53.020;6.576;2023-01-16T09:47:07;8.23;;;3.60;;
56114;SDS011;41988;53.020;6.576;2023-01-16T09:49:58;7.47;;;4.07;;
56114;SDS011;41988;53.020;6.576;2023-01-16T09:52:48;8.20;;;4.33;;
56114;SDS011;41988;53.020;6.576;2023-01-16T09:56:02;9.00;;;3.67;;
56114;SDS011;41988;53.020;6.576;2023-01-16T09:59:23;8.43;;;3.90;;
56114;SDS011;41988;53.020;6.576;2023-01-16T10:02:25;7.73;;;3.33;;
56114;SDS011;41988;53.020;6.576;2023-01-16T10:05:11;11.70;;;3.50;;
56114;SDS011;41988;53.020;6.576;2023-01-16T10:07:59;11.40;;;4.70;;
56114;SDS011;41988;53.020;6.576;2023-01-16T10:11:18;6.80;;;3.17;;
56114;SDS011;41988;53.020;6.576;2023-01-16T10:14:35;6.47;;;3.03;;
56114;SDS011;41988;53.020;6.576;2023-01-16T10:17:28;6.90;;;4.40;;
56114;SDS011;41988;53.020;6.576;2023-01-16T10:26:55;4.47;;;2.23;;
56114;SDS011;41988;53.020;6.576;2023-01-16T10:29:48;6.93;;;2.57;;
56114;SDS011;41988;53.020;6.576;2023-01-16T10:32:42;6.47;;;2.53;;
56114;SDS011;41988;53.020;6.576;2023-01-16T10:35:39;5.87;;;2.40;;
56114;SDS011;41988;53.020;6.576;2023-01-16T10:38:33;5.50;;;2.50;;
56114;SDS011;41988;53.020;6.576;2023-01-16T10:44:36;7.83;;;2.47;;
56114;SDS011;41988;53.020;6.576;2023-01-16T10:47:40;4.80;;;2.23;;
56114;SDS011;41988;53.020;6.576;2023-01-16T10:50:43;5.50;;;2.70;;
56114;SDS011;41988;53.020;6.576;2023-01-16T10:53:29;4.23;;;2.10;;
56114;SDS011;41988;53.020;6.576;2023-01-16T10:56:14;3.93;;;2.00;;
56114;SDS011;41988;53.020;6.576;2023-01-16T10:58:58;6.37;;;2.00;;
56114;SDS011;41988;53.020;6.576;2023-01-16T11:01:43;4.93;;;1.97;;
56114;SDS011;41988;53.020;6.576;2023-01-16T11:04:35;2.87;;;2.10;;
56114;SDS011;41988;53.020;6.576;2023-01-16T11:07:19;7.13;;;2.30;;
56114;SDS011;41988;53.020;6.576;2023-01-16T11:10:05;6.03;;;1.77;;
56114;SDS011;41988;53.020;6.576;2023-01-16T11:12:49;3.10;;;1.97;;
56114;SDS011;41988;53.020;6.576;2023-01-16T11:16:04;6.50;;;2.50;;
56114;SDS011;41988;53.020;6.576;2023-01-16T11:19:21;5.20;;;2.00;;
56114;SDS011;41988;53.020;6.576;2023-01-16T11:22:19;3.70;;;2.30;;
56114;SDS011;41988;53.020;6.576;2023-01-16T11:25:09;6.33;;;2.40;;
56114;SDS011;41988;53.020;6.576;2023-01-16T11:28:02;5.17;;;2.47;;
56114;SDS011;41988;53.020;6.576;2023-01-16T11:30:51;6.40;;;3.17;;
56114;SDS011;41988;53.020;6.576;2023-01-16T11:33:44;4.93;;;2.97;;
56114;SDS011;41988;53.020;6.576;2023-01-16T11:36:32;4.53;;;2.80;;
56114;SDS011;41988;53.020;6.576;2023-01-16T11:39:19;10.50;;;3.47;;
56114;SDS011;41988;53.020;6.576;2023-01-16T11:42:11;5.10;;;3.10;;
56114;SDS011;41988;53.020;6.576;2023-01-16T11:45:17;7.57;;;2.97;;
56114;SDS011;41988;53.020;6.576;2023-01-16T11:48:22;6.97;;;3.23;;
56114;SDS011;41988;53.020;6.576;2023-01-16T11:51:11;6.63;;;3.57;;
56114;SDS011;41988;53.020;6.576;2023-01-16T11:53:58;6.77;;;2.80;;
56114;SDS011;41988;53.020;6.576;2023-01-16T11:56:50;5.10;;;3.00;;
56114;SDS011;41988;53.020;6.576;2023-01-16T12:08:43;4.20;;;3.03;;
56114;SDS011;41988;53.020;6.576;2023-01-16T12:20:34;3.97;;;2.40;;
56114;SDS011;41988;53.020;6.576;2023-01-16T12:26:23;5.87;;;2.30;;
56114;SDS011;41988;53.020;6.576;2023-01-16T12:31:59;4.20;;;2.50;;
56114;SDS011;41988;53.020;6.576;2023-01-16T12:38:17;9.83;;;3.30;;
56114;SDS011;41988;53.020;6.576;2023-01-16T12:41:14;4.97;;;3.00;;
56114;SDS011;41988;53.020;6.576;2023-01-16T12:47:21;11.07;;;3.73;;
56114;SDS011;41988;53.020;6.576;2023-01-16T12:53:16;5.93;;;2.23;;
56114;SDS011;41988;53.020;6.576;2023-01-16T12:59:16;4.50;;;2.27;;
56114;SDS011;41988;53.020;6.576;2023-01-16T13:05:02;5.60;;;2.40;;
56114;SDS011;41988;53.020;6.576;2023-01-16T13:08:04;5.87;;;2.10;;
56114;SDS011;41988;53.020;6.576;2023-01-16T13:10:56;4.93;;;2.10;;
56114;SDS011;41988;53.020;6.576;2023-01-16T13:14:06;5.77;;;2.90;;
56114;SDS011;41988;53.020;6.576;2023-01-16T13:19:39;5.17;;;2.40;;
56114;SDS011;41988;53.020;6.576;2023-01-16T13:22:27;4.83;;;2.80;;
56114;SDS011;41988;53.020;6.576;2023-01-16T13:25:24;4.57;;;2.57;;
56114;SDS011;41988;53.020;6.576;2023-01-16T13:31:02;7.10;;;2.80;;
56114;SDS011;41988;53.020;6.576;2023-01-16T13:33:52;4.87;;;2.93;;
56114;SDS011;41988;53.020;6.576;2023-01-16T13:42:22;6.87;;;3.87;;
56114;SDS011;41988;53.020;6.576;2023-01-16T13:45:15;5.53;;;3.10;;
56114;SDS011;41988;53.020;6.576;2023-01-16T13:48:27;5.10;;;2.80;;
56114;SDS011;41988;53.020;6.576;2023-01-16T13:51:15;7.03;;;3.17;;
56114;SDS011;41988;53.020;6.576;2023-01-16T13:54:03;5.27;;;3.27;;
56114;SDS011;41988;53.020;6.576;2023-01-16T13:57:22;7.20;;;3.43;;
56114;SDS011;41988;53.020;6.576;2023-01-16T14:00:11;4.67;;;2.80;;
56114;SDS011;41988;53.020;6.576;2023-01-16T14:03:16;4.70;;;2.90;;
56114;SDS011;41988;53.020;6.576;2023-01-16T14:15:14;5.20;;;3.53;;
56114;SDS011;41988;53.020;6.576;2023-01-16T14:18:34;5.07;;;3.03;;
56114;SDS011;41988;53.020;6.576;2023-01-16T14:21:27;3.90;;;2.20;;
56114;SDS011;41988;53.020;6.576;2023-01-16T14:24:23;4.17;;;2.80;;
56114;SDS011;41988;53.020;6.576;2023-01-16T14:27:11;4.63;;;2.77;;
56114;SDS011;41988;53.020;6.576;2023-01-16T14:29:59;6.23;;;3.20;;
56114;SDS011;41988;53.020;6.576;2023-01-16T14:32:50;5.87;;;3.23;;
56114;SDS011;41988;53.020;6.576;2023-01-16T14:35:41;5.73;;;2.50;;
56114;SDS011;41988;53.020;6.576;2023-01-16T14:38:29;5.33;;;2.47;;
56114;SDS011;41988;53.020;6.576;2023-01-16T14:41:15;9.17;;;3.00;;
56114;SDS011;41988;53.020;6.576;2023-01-16T14:44:23;6.80;;;2.60;;
56114;SDS011;41988;53.020;6.576;2023-01-16T14:47:30;5.03;;;2.37;;
56114;SDS011;41988;53.020;6.576;2023-01-16T14:50:44;5.97;;;3.00;;
56114;SDS011;41988;53.020;6.576;2023-01-16T14:54:09;7.77;;;2.87;;
56114;SDS011;41988;53.020;6.576;2023-01-16T14:57:17;8.27;;;3.73;;
56114;SDS011;41988;53.020;6.576;2023-01-16T15:00:08;7.00;;;3.60;;
56114;SDS011;41988;53.020;6.576;2023-01-16T15:03:07;10.20;;;4.68;;
56114;SDS011;41988;53.020;6.576;2023-01-16T15:06:00;8.90;;;3.70;;
56114;SDS011;41988;53.020;6.576;2023-01-16T15:08:48;6.33;;;3.73;;
56114;SDS011;41988;53.020;6.576;2023-01-16T15:11:37;7.03;;;2.90;;
56114;SDS011;41988;53.020;6.576;2023-01-16T15:14:28;5.03;;;2.90;;
56114;SDS011;41988;53.020;6.576;2023-01-16T15:23:38;5.53;;;3.10;;
56114;SDS011;41988;53.020;6.576;2023-01-16T15:26:32;6.07;;;2.90;;
56114;SDS011;41988;53.020;6.576;2023-01-16T15:29:24;5.00;;;2.97;;
56114;SDS011;41988;53.020;6.576;2023-01-16T15:32:20;5.80;;;2.60;;
56114;SDS011;41988;53.020;6.576;2023-01-16T15:35:15;4.73;;;2.57;;
56114;SDS011;41988;53.020;6.576;2023-01-16T15:38:02;7.00;;;2.70;;
56114;SDS011;41988;53.020;6.576;2023-01-16T15:40:48;5.53;;;2.50;;
56114;SDS011;41988;53.020;6.576;2023-01-16T15:43:35;6.17;;;3.30;;
56114;SDS011;41988;53.020;6.576;2023-01-16T15:49:30;4.20;;;2.40;;
56114;SDS011;41988;53.020;6.576;2023-01-16T15:52:18;5.60;;;2.53;;
56114;SDS011;41988;53.020;6.576;2023-01-16T15:55:07;5.90;;;2.63;;
56114;SDS011;41988;53.020;6.576;2023-01-16T15:58:23;4.73;;;2.57;;
56114;SDS011;41988;53.020;6.576;2023-01-16T16:01:08;7.17;;;3.13;;
56114;SDS011;41988;53.020;6.576;2023-01-16T16:03:53;5.23;;;3.10;;
56114;SDS011;41988;53.020;6.576;2023-01-16T16:06:38;6.13;;;3.53;;
56114;SDS011;41988;53.020;6.576;2023-01-16T16:09:24;6.87;;;3.53;;
56114;SDS011;41988;53.020;6.576;2023-01-16T16:12:10;3.80;;;3.07;;
56114;SDS011;41988;53.020;6.576;2023-01-16T16:15:29;6.27;;;3.77;;
56114;SDS011;41988;53.020;6.576;2023-01-16T16:18:25;6.03;;;3.20;;
56114;SDS011;41988;53.020;6.576;2023-01-16T16:21:12;7.30;;;3.40;;
56114;SDS011;41988;53.020;6.576;2023-01-16T16:24:03;4.43;;;3.23;;
56114;SDS011;41988;53.020;6.576;2023-01-16T16:26:49;7.03;;;3.53;;
56114;SDS011;41988;53.020;6.576;2023-01-16T16:29:34;4.83;;;3.50;;
56114;SDS011;41988;53.020;6.576;2023-01-16T16:32:19;4.90;;;3.67;;
56114;SDS011;41988;53.020;6.576;2023-01-16T16:35:04;5.93;;;3.13;;
56114;SDS011;41988;53.020;6.576;2023-01-16T16:37:48;11.33;;;5.40;;
56114;SDS011;41988;53.020;6.576;2023-01-16T16:40:34;8.20;;;4.63;;
56114;SDS011;41988;53.020;6.576;2023-01-16T16:43:30;11.00;;;5.70;;
56114;SDS011;41988;53.020;6.576;2023-01-16T16:46:34;7.70;;;3.70;;
56114;SDS011;41988;53.020;6.576;2023-01-16T16:52:20;4.87;;;2.87;;
56114;SDS011;41988;53.020;6.576;2023-01-16T16:55:06;4.50;;;3.10;;
56114;SDS011;41988;53.020;6.576;2023-01-16T16:58:21;3.40;;;2.77;;
56114;SDS011;41988;53.020;6.576;2023-01-16T17:01:09;4.00;;;3.00;;
56114;SDS011;41988;53.020;6.576;2023-01-16T17:04:00;4.63;;;2.77;;
56114;SDS011;41988;53.020;6.576;2023-01-16T17:06:46;3.80;;;2.70;;
56114;SDS011;41988;53.020;6.576;2023-01-16T17:09:31;5.93;;;3.40;;
56114;SDS011;41988;53.020;6.576;2023-01-16T17:12:18;5.30;;;3.40;;
56114;SDS011;41988;53.020;6.576;2023-01-16T17:15:07;5.17;;;3.50;;
56114;SDS011;41988;53.020;6.576;2023-01-16T17:17:54;5.83;;;3.50;;
56114;SDS011;41988;53.020;6.576;2023-01-16T17:20:42;4.90;;;3.70;;
56114;SDS011;41988;53.020;6.576;2023-01-16T17:23:27;5.30;;;3.97;;
56114;SDS011;41988;53.020;6.576;2023-01-16T17:26:11;5.70;;;3.80;;
56114;SDS011;41988;53.020;6.576;2023-01-16T17:28:58;5.60;;;3.70;;
56114;SDS011;41988;53.020;6.576;2023-01-16T17:31:43;5.17;;;3.83;;
56114;SDS011;41988;53.020;6.576;2023-01-16T17:34:28;6.23;;;4.00;;
56114;SDS011;41988;53.020;6.576;2023-01-16T17:37:13;7.30;;;3.83;;
56114;SDS011;41988;53.020;6.576;2023-01-16T17:40:01;5.67;;;4.20;;
56114;SDS011;41988;53.020;6.576;2023-01-16T17:43:04;7.07;;;4.77;;
56114;SDS011;41988;53.020;6.576;2023-01-16T17:46:11;8.50;;;4.70;;
56114;SDS011;41988;53.020;6.576;2023-01-16T17:48:56;8.37;;;5.43;;
56114;SDS011;41988;53.020;6.576;2023-01-16T17:51:41;8.07;;;5.43;;
56114;SDS011;41988;53.020;6.576;2023-01-16T17:54:26;10.73;;;5.87;;
56114;SDS011;41988;53.020;6.576;2023-01-16T17:57:32;9.73;;;6.00;;
56114;SDS011;41988;53.020;6.576;2023-01-16T18:00:23;11.23;;;7.03;;
56114;SDS011;41988;53.020;6.576;2023-01-16T18:03:15;12.90;;;6.77;;
56114;SDS011;41988;53.020;6.576;2023-01-16T18:06:10;10.73;;;7.40;;
56114;SDS011;41988;53.020;6.576;2023-01-16T18:08:57;11.93;;;7.37;;
56114;SDS011;41988;53.020;6.576;2023-01-16T18:11:42;11.60;;;7.67;;
56114;SDS011;41988;53.020;6.576;2023-01-16T18:14:46;13.70;;;8.38;;
56114;SDS011;41988;53.020;6.576;2023-01-16T18:17:50;13.87;;;7.70;;
56114;SDS011;41988;53.020;6.576;2023-01-16T18:24:01;13.53;;;8.50;;
56114;SDS011;41988;53.020;6.576;2023-01-16T18:26:46;13.33;;;9.47;;
56114;SDS011;41988;53.020;6.576;2023-01-16T18:29:33;13.07;;;8.73;;
56114;SDS011;41988;53.020;6.576;2023-01-16T18:32:18;15.97;;;9.53;;
56114;SDS011;41988;53.020;6.576;2023-01-16T18:35:06;16.03;;;9.67;;
56114;SDS011;41988;53.020;6.576;2023-01-16T18:37:54;17.13;;;12.20;;
56114;SDS011;41988;53.020;6.576;2023-01-16T18:40:59;14.43;;;9.47;;
56114;SDS011;41988;53.020;6.576;2023-01-16T18:44:03;14.93;;;10.37;;
56114;SDS011;41988;53.020;6.576;2023-01-16T18:47:08;19.65;;;10.18;;
56114;SDS011;41988;53.020;6.576;2023-01-16T18:50:16;17.07;;;10.20;;
56114;SDS011;41988;53.020;6.576;2023-01-16T18:53:29;13.90;;;9.67;;
56114;SDS011;41988;53.020;6.576;2023-01-16T18:56:37;16.07;;;11.00;;
56114;SDS011;41988;53.020;6.576;2023-01-16T18:59:44;18.37;;;11.43;;
56114;SDS011;41988;53.020;6.576;2023-01-16T19:02:48;15.73;;;10.27;;
56114;SDS011;41988;53.020;6.576;2023-01-16T19:05:36;18.27;;;11.10;;
56114;SDS011;41988;53.020;6.576;2023-01-16T19:08:22;15.00;;;11.20;;
56114;SDS011;41988;53.020;6.576;2023-01-16T19:11:08;15.93;;;10.83;;
56114;SDS011;41988;53.020;6.576;2023-01-16T19:13:52;16.53;;;12.50;;
56114;SDS011;41988;53.020;6.576;2023-01-16T19:16:40;15.00;;;10.47;;
56114;SDS011;41988;53.020;6.576;2023-01-16T19:19:27;17.80;;;11.80;;
56114;SDS011;41988;53.020;6.576;2023-01-16T19:22:14;16.33;;;10.70;;
56114;SDS011;41988;53.020;6.576;2023-01-16T19:24:59;17.27;;;10.93;;
56114;SDS011;41988;53.020;6.576;2023-01-16T19:27:43;17.57;;;10.67;;